Date,TemperatureHighF,TemperatureAvgF,TemperatureLowF,DewpointHighF,DewpointAvgF,DewpointLowF,HumidityHigh,HumidityAvg,HumidityLow,PressureMaxIn,PressureMinIn,WindSpeedMaxMPH,WindSpeedAvgMPH,GustSpeedMaxMPH,PrecipitationSumIn
2012-1-1,77,62,52,61,52,45,96,73,40,29.94,29.79,8,1,10,0.00
2012-1-2,71,57,43,63,35,18,98,49,22,29.88,29.73,11,3,13,0.08
2012-1-3,56,41,29,19,13,6,53,32,21,30.06,29.82,10,3,17,0.00
2012-1-4,63,40,23,19,15,11,62,39,16,30.11,29.94,6,1,8,0.00
2012-1-5,72,50,32,41,33,18,78,55,33,29.97,29.79,14,2,17,0.00
2012-1-6,75,56,42,48,41,34,88,61,28,29.88,29.76,6,1,9,0.00
2012-1-7,76,59,46,56,48,37,97,70,33,29.85,29.73,4,0,10,0.00
2012-1-8,83,60,43,53,44,38,83,61,30,29.91,29.82,6,1,7,0.00
2012-1-9,76,61,47,57,48,41,83,65,36,29.91,29.76,8,0,9,0.00
2012-1-10,70,60,49,61,54,43,92,78,65,29.76,29.58,8,1,11,0.00
2012-1-11,76,65,56,65,55,48,90,72,46,29.61,29.38,25,5,28,0.04
2012-1-12,77,63,49,57,51,45,95,70,37,29.58,29.46,12,3,15,0.00
2012-1-13,64,54,45,51,26,17,71,37,19,29.88,29.55,13,3,16,0.00
2012-1-14,65,46,33,26,21,18,54,39,21,30.06,29.88,9,2,13,0.00
2012-1-15,73,49,33,36,24,20,73,43,17,30.11,30.00,7,1,13,0.00
2012-1-16,71,52,34,46,36,21,77,57,34,30.14,30.00,14,3,18,0.00
2012-1-17,80,59,42,52,43,35,81,59,31,30.00,29.76,11,1,15,0.00
2012-1-18,63,58,51,63,56,47,98,93,76,29.79,29.64,10,1,11,0.28
2012-1-19,71,53,38,48,36,29,90,59,23,29.88,29.70,5,0,6,0.00
2012-1-20,77,57,40,48,41,32,85,58,31,29.85,29.73,9,0,9,0.00
2012-1-21,73,63,54,54,50,45,87,65,43,29.82,29.67,13,1,14,0.00
2012-1-22,77,58,52,63,53,48,97,85,44,29.82,29.70,0,0,0,0.00
2012-1-23,81,68,61,65,57,48,98,73,33,29.82,29.70,0,0,0,0.00
2012-1-24,82,68,58,60,56,52,93,69,36,29.85,29.76,0,0,0,0.00
2012-1-25,80,63,0,65,55,0,94,73,45,29.88,29.76,0,0,0,0.00
2012-1-26,82,68,0,68,57,0,98,69,34,29.76,29.55,0,0,0,0.00
2012-1-27,76,66,52,66,54,41,96,68,32,29.73,29.49,0,0,0,0.08
2012-1-28,78,58,43,51,40,35,83,57,25,29.88,29.70,0,0,0,0.00
2012-1-29,76,55,39,42,38,31,79,56,28,30.03,29.85,0,0,0,0.00
2012-1-30,72,48,0,41,31,0,78,53,23,30.08,25.45,0,0,0,0.00
2012-1-31,75,58,41,52,43,34,80,60,34,30.06,29.94,0,0,0,0.00
2012-2-1,80,65,55,58,52,46,88,66,32,29.94,29.79,0,0,0,0.00
2012-2-2,83,69,59,59,55,50,86,65,37,29.85,29.73,0,0,0,0.00
2012-2-3,77,65,55,60,53,46,95,70,35,29.94,29.82,0,0,0,0.00
2012-2-4,76,66,58,60,56,52,92,71,45,29.91,29.73,0,0,0,0.00
2012-2-5,81,68,59,65,59,53,97,74,41,29.76,29.64,0,0,0,0.04
2012-2-6,78,66,59,62,59,56,93,79,52,29.79,29.67,0,0,0,0.16
2012-2-7,70,61,54,58,55,48,98,82,56,29.79,29.70,0,0,0,0.00
2012-2-8,76,60,48,52,44,36,91,61,24,29.82,29.70,0,0,0,0.00
2012-2-9,73,57,46,50,40,33,76,55,26,29.88,29.76,0,0,0,0.00
2012-2-10,78,63,52,62,55,47,95,77,42,29.82,29.58,0,0,0,0.16
2012-2-11,69,56,40,58,38,11,89,55,30,29.88,29.52,0,0,0,0.08
2012-2-12,54,40,29,18,11,5,54,32,18,30.08,29.88,0,0,0,0.00
2012-2-13,66,44,24,32,22,12,63,44,23,30.00,29.79,0,0,0,0.00
2012-2-14,76,60,39,56,45,28,96,61,35,29.82,29.67,0,0,0,0.00
2012-2-15,80,68,62,62,58,55,91,72,45,29.88,29.73,0,0,0,0.00
2012-2-16,83,70,62,62,57,51,96,69,35,29.85,29.67,0,0,0,0.00
2012-2-17,73,67,62,67,64,58,96,91,71,29.73,29.64,0,0,0,0.20
2012-2-18,76,67,62,63,60,57,98,82,52,29.70,29.49,0,0,0,0.04
2012-2-19,81,70,59,70,58,46,94,71,34,29.55,29.35,0,0,0,0.00
2012-2-20,66,54,46,51,40,35,80,60,34,29.94,29.55,0,0,0,0.00
2012-2-21,70,58,46,53,46,39,85,68,40,29.94,29.76,0,0,0,0.00
2012-2-22,77,64,50,65,54,45,94,74,39,29.76,29.46,0,0,0,0.08
2012-2-23,84,74,66,68,64,57,96,74,42,29.55,29.46,0,0,0,0.00
2012-2-24,86,75,64,66,62,46,89,65,37,29.67,29.49,0,0,0,0.00
2012-2-25,69,60,53,42,27,18,46,28,15,29.97,29.67,0,0,0,0.00
2012-2-26,61,55,49,58,45,28,98,73,39,30.06,29.94,0,0,0,0.24
2012-2-27,77,66,59,69,63,58,98,89,58,30.00,29.91,0,0,0,0.24
2012-2-28,75,66,63,63,61,55,98,84,51,29.97,29.88,0,0,0,0.00
2012-2-29,85,72,63,68,60,53,98,72,36,29.91,29.73,0,0,0,0.00
2012-3-1,84,72,66,64,60,56,90,70,40,29.76,29.61,0,0,0,0.00
2012-3-2,84,72,66,64,59,52,92,66,34,29.70,29.58,0,0,0,0.00
2012-3-3,87,75,67,68,62,53,97,67,32,29.55,29.38,0,0,0,0.00
2012-3-4,77,60,43,65,37,19,88,49,17,29.88,29.26,0,0,0,0.43
2012-3-5,80,58,38,41,32,27,69,42,20,30.03,29.88,0,0,0,0.00
2012-3-6,73,60,42,48,41,32,68,51,33,30.11,30.03,0,0,0,0.00
2012-3-7,74,66,58,55,50,46,78,57,41,30.11,29.97,0,0,0,0.00
2012-3-8,83,67,53,62,55,48,92,68,34,30.00,29.82,0,0,0,0.00
2012-3-9,83,70,61,67,61,56,92,74,41,29.85,29.73,0,0,0,0.00
2012-3-10,72,65,61,60,54,48,88,69,45,29.97,29.79,0,0,0,0.00
2012-3-11,71,67,62,64,57,51,98,71,52,30.03,29.91,0,0,0,0.00
2012-3-12,79,70,64,56,52,47,72,55,33,30.00,29.88,0,0,0,0.00
2012-3-13,83,69,55,60,53,49,86,60,31,29.94,29.82,0,0,0,0.00
2012-3-14,86,70,56,61,55,50,83,61,33,29.91,29.79,0,0,0,0.00
2012-3-15,84,69,55,63,55,49,85,64,31,29.94,29.82,0,0,0,0.00
2012-3-16,87,70,54,65,53,39,92,61,19,29.91,29.79,0,0,0,0.00
2012-3-17,87,70,56,64,54,47,90,61,29,29.91,29.79,0,0,0,0.00
2012-3-18,86,70,55,61,52,45,80,58,24,29.94,29.82,0,0,0,0.00
2012-3-19,85,70,54,63,53,48,86,60,30,29.88,29.73,0,0,0,0.00
2012-3-20,82,72,58,62,56,48,82,60,32,29.82,29.70,0,0,0,0.00
2012-3-21,79,69,58,67,61,53,96,75,54,29.82,29.73,0,0,0,0.12
2012-3-22,85,72,65,66,62,51,95,74,31,29.85,29.76,0,0,0,0.00
2012-3-23,88,79,70,67,60,53,90,56,31,29.76,29.61,0,0,0,0.00
2012-3-24,84,71,65,67,63,55,93,78,39,29.67,29.52,0,0,0,0.08
2012-3-25,83,71,62,66,51,34,95,56,22,29.55,29.44,0,0,0,0.00
2012-3-26,86,69,52,55,45,40,70,47,21,29.70,29.52,0,0,0,0.00
2012-3-27,85,69,52,61,50,39,83,57,21,29.88,29.67,0,0,0,0.00
2012-3-28,87,71,58,63,56,47,96,64,26,29.88,29.70,0,0,0,0.00
2012-3-29,88,74,63,62,55,45,90,57,24,29.73,29.58,0,0,0,0.00
2012-3-30,88,73,60,63,55,47,77,57,24,29.73,29.58,0,0,0,0.00
2012-3-31,78,69,64,68,63,58,96,81,60,29.64,29.46,0,0,0,1.07
2012-4-1,89,73,60,67,57,45,98,66,23,29.58,29.46,0,0,0,0.00
2012-4-2,92,77,65,67,56,42,96,56,20,29.55,29.46,0,0,0,0.00
2012-4-3,92,78,66,69,60,46,93,61,22,29.61,29.49,0,0,0,0.00
2012-4-4,91,78,68,63,58,53,80,53,29,29.61,29.44,0,0,0,0.00
2012-4-5,90,76,68,64,56,49,85,55,25,29.46,29.35,0,0,0,0.00
2012-4-6,86,71,63,66,54,42,90,60,22,29.67,29.35,0,0,0,0.00
2012-4-7,75,64,52,47,44,42,73,49,32,29.85,29.67,0,0,0,0.00
2012-4-8,82,66,50,54,44,37,79,50,22,29.88,29.73,0,0,0,0.00
2012-4-9,86,71,56,55,49,41,76,51,23,29.76,29.61,0,0,0,0.00
2012-4-10,87,72,58,58,48,40,81,47,20,29.73,29.58,0,0,0,0.00
2012-4-11,86,72,58,56,46,38,78,45,20,29.70,29.58,0,0,0,0.00
2012-4-12,78,66,55,52,45,37,71,48,31,29.76,29.64,0,0,0,0.00
2012-4-13,84,68,57,58,53,46,85,62,30,29.85,29.73,0,0,0,0.00
2012-4-14,78,69,58,62,56,52,88,64,41,29.91,29.82,0,0,0,0.00
2012-4-15,84,71,59,60,54,46,93,58,29,29.88,29.82,0,0,0,0.00
2012-4-16,87,72,58,60,53,47,82,55,28,29.88,29.79,0,0,0,0.00
2012-4-17,87,72,58,62,54,48,86,57,27,29.85,29.70,0,0,0,0.00
2012-4-18,87,75,67,66,58,48,86,60,26,29.76,29.58,0,0,0,0.00
2012-4-19,83,72,63,69,63,57,93,77,41,29.64,29.52,0,0,0,0.20
2012-4-20,89,74,66,68,63,50,96,73,28,29.58,29.46,0,0,0,0.04
2012-4-21,82,72,67,66,64,55,93,76,40,29.49,29.26,0,0,0,0.04
2012-4-22,78,69,62,65,58,37,97,72,36,29.38,29.11,0,0,0,0.52
2012-4-23,73,62,52,39,34,28,59,36,22,29.55,29.38,0,0,0,0.00
2012-4-24,75,60,43,34,32,27,63,38,18,29.67,29.55,0,0,0,0.00
2012-4-25,85,68,50,46,41,35,72,41,21,29.76,29.64,0,0,0,0.00
2012-4-26,90,73,56,58,48,40,87,48,19,29.79,29.64,0,0,0,0.00
2012-4-27,91,75,62,62,53,38,91,53,18,29.79,29.64,0,0,0,0.00
2012-4-28,92,76,60,67,56,50,84,54,25,29.76,29.67,0,0,0,0.00
2012-4-29,88,77,68,72,63,47,97,68,25,29.79,29.70,0,0,0,0.00
2012-4-30,87,76,66,71,63,54,97,69,33,29.79,29.73,0,0,0,0.00
2012-5-1,86,76,64,69,63,58,94,68,40,29.79,29.70,0,0,0,0.00
2012-5-2,88,76,65,70,63,58,94,67,37,29.79,29.70,0,0,0,0.00
2012-5-3,90,77,62,69,62,52,94,64,28,29.79,29.70,0,0,0,0.00
2012-5-4,91,78,68,68,63,52,90,63,28,29.76,29.64,0,0,0,0.00
2012-5-5,94,80,66,66,59,52,85,53,25,29.67,29.52,0,0,0,0.00
2012-5-6,97,80,69,67,59,44,85,55,17,29.61,29.49,0,0,0,0.00
2012-5-7,89,74,68,71,65,53,92,77,31,29.58,29.52,0,0,0,0.20
2012-5-8,90,76,66,74,64,55,95,72,31,29.58,29.46,0,0,0,0.00
2012-5-9,93,78,67,69,61,53,93,60,28,29.55,29.35,0,0,0,0.00
2012-5-10,86,73,64,64,56,48,84,59,29,29.58,29.44,0,0,0,0.00
2012-5-11,87,73,57,63,49,37,86,49,19,29.79,29.58,0,0,0,0.00
2012-5-12,83,73,60,58,53,50,80,52,33,29.88,29.76,0,0,0,0.00
2012-5-13,83,73,62,63,58,53,85,60,37,29.82,29.67,0,0,0,0.00
2012-5-14,87,75,68,70,65,59,95,73,40,29.73,29.58,0,0,0,1.06
2012-5-15,88,75,68,71,68,61,96,80,43,29.67,29.58,0,0,0,0.51
2012-5-16,78,73,69,71,68,65,96,86,67,29.67,29.55,0,0,0,0.16
2012-5-17,85,74,0,69,63,0,93,70,41,29.61,29.49,0,0,0,0.87
2012-5-18,84,72,62,69,62,51,95,73,32,29.64,29.52,0,0,0,0.00
2012-5-19,84,74,67,66,60,49,96,65,37,29.70,29.61,0,0,0,0.04
2012-5-20,88,72,57,59,50,40,85,52,19,29.70,29.61,0,0,0,0.00
2012-5-21,89,75,60,64,55,51,78,54,28,29.64,29.55,0,0,0,0.00
2012-5-22,91,77,68,65,60,51,82,59,28,29.61,29.49,0,0,0,0.12
2012-5-23,92,78,65,70,61,53,93,59,28,29.58,29.46,0,0,0,0.00
2012-5-24,91,80,71,72,65,57,94,65,33,29.58,29.52,0,0,0,0.00
2012-5-25,92,79,68,72,61,52,93,59,28,29.70,29.58,0,0,0,0.00
2012-5-26,94,79,64,67,58,53,87,54,26,29.73,29.61,0,0,0,0.00
2012-5-27,89,76,68,72,65,60,95,69,39,29.64,29.26,0,0,0,0.44
2012-5-28,82,75,70,73,70,67,98,87,64,29.55,29.23,0,0,0,3.56
2012-5-29,80,74,72,74,71,68,98,89,67,29.55,29.41,0,0,0,2.06
2012-5-30,95,81,72,78,70,56,98,74,30,29.52,29.41,0,0,0,0.08
2012-5-31,92,77,70,76,68,60,97,75,37,29.55,29.46,0,0,0,0.67
2012-6-1,86,76,72,72,69,64,91,79,49,29.58,29.46,0,0,0,0.00
2012-6-2,92,80,70,70,62,50,93,59,28,29.61,29.49,0,0,0,0.00
2012-6-3,93,79,64,62,54,45,80,47,20,29.70,29.58,0,0,0,0.00
2012-6-4,94,82,70,70,60,54,85,52,27,29.58,29.44,0,0,0,0.00
2012-6-5,94,82,74,73,66,54,92,64,27,29.52,29.38,0,0,0,0.04
2012-6-6,90,78,73,73,68,57,96,73,34,29.58,29.46,0,0,0,0.12
2012-6-7,87,74,0,74,68,0,98,81,46,29.61,29.55,0,0,0,0.94
2012-6-8,78,74,72,73,71,65,97,91,69,29.64,29.55,0,0,0,0.12
2012-6-9,85,72,0,74,68,0,97,83,53,29.70,29.58,0,0,0,1.98
2012-6-10,90,78,73,75,71,66,97,80,45,29.79,29.64,0,0,0,1.06
2012-6-11,93,80,70,73,68,60,98,72,34,29.76,29.67,0,0,0,0.39
2012-6-12,93,79,73,72,68,59,92,72,33,29.76,29.58,0,0,0,0.00
2012-6-13,96,82,74,74,67,53,95,67,28,29.61,29.49,0,0,0,0.00
2012-6-14,88,77,71,72,68,62,92,76,43,29.67,29.52,0,0,0,1.03
2012-6-15,83,76,70,71,65,58,94,71,46,29.73,29.61,0,0,0,0.00
2012-6-16,85,75,67,68,62,57,91,65,40,29.76,29.67,0,0,0,0.00
2012-6-17,88,76,67,68,60,52,91,62,31,29.76,29.64,0,0,0,0.00
2012-6-18,88,76,64,67,60,52,88,61,30,29.73,29.64,0,0,0,0.00
2012-6-19,87,76,63,67,60,55,89,61,34,29.76,29.70,0,0,0,0.00
2012-6-20,86,77,69,68,62,55,88,62,36,29.76,29.67,0,0,0,0.00
2012-6-21,85,78,72,73,67,61,90,71,48,29.70,29.55,0,0,0,0.00
2012-6-22,88,79,73,75,71,64,93,78,45,29.58,29.52,0,0,0,0.00
2012-6-23,91,79,73,75,71,63,97,78,41,29.61,29.52,0,0,0,0.00
2012-6-24,79,74,0,75,70,0,97,86,77,29.67,29.38,0,0,0,0.00
2012-6-25,82,77,75,76,73,69,98,88,67,29.41,29.26,0,0,0,0.00
2012-6-26,83,77,73,76,73,70,96,87,67,29.44,0.00,0,0,0,0.04
2012-6-27,84,75,69,72,65,59,97,73,45,29.82,29.44,0,0,0,0.00
2012-6-28,92,77,64,67,58,48,92,60,22,29.91,29.79,0,0,0,0.00
2012-6-29,95,58,0,68,46,0,86,44,29,29.82,0.00,0,0,0,0.00
2012-6-30,95,57,0,72,46,0,92,42,39,29.76,29.52,0,0,0,0.12
2012-7-1,96,84,74,72,68,64,87,61,39,29.70,29.58,0,0,0,0.00
2012-7-2,97,82,72,71,66,59,87,62,29,29.73,29.61,0,0,0,1.77
2012-7-3,95,81,70,72,66,56,91,66,28,29.70,29.61,0,0,0,0.00
2012-7-4,95,83,75,73,68,57,92,64,28,29.73,29.61,0,0,0,0.32
2012-7-5,95,83,72,74,66,57,88,61,29,29.70,29.58,0,0,0,0.00
2012-7-6,96,83,75,74,68,59,90,65,29,29.70,29.61,0,0,0,0.51
2012-7-7,94,81,74,75,70,60,91,71,33,29.73,29.64,0,0,0,0.00
2012-7-8,96,83,72,75,68,58,92,64,30,29.76,29.61,0,0,0,0.00
2012-7-9,96,83,74,73,66,57,87,60,29,29.70,29.61,0,0,0,0.00
2012-7-10,93,79,74,75,69,63,86,72,37,29.70,0.00,0,0,0,0.00
2012-7-11,90,80,72,74,68,61,91,69,38,29.70,0.00,0,0,0,0.00
2012-7-12,91,81,70,72,66,60,87,63,36,29.70,0.00,0,0,0,0.00
2012-7-13,90,82,76,74,68,61,93,66,39,29.73,0.00,0,0,0,0.00
2012-7-14,91,82,74,74,67,60,92,63,35,29.79,0.00,0,0,0,0.00
2012-7-15,90,79,71,76,68,60,88,72,39,29.79,29.67,0,0,0,0.08
2012-7-16,91,80,70,74,67,62,92,67,39,29.73,29.58,0,0,0,0.00
2012-7-17,93,78,71,72,68,61,92,75,35,29.67,0.00,0,0,0,0.83
2012-7-18,88,78,72,81,71,65,97,80,49,29.73,29.61,0,0,0,0.00
2012-7-19,88,78,75,74,72,64,92,82,50,29.79,29.73,0,0,0,0.08
2012-7-20,95,83,74,77,69,56,98,68,30,29.76,29.67,0,0,0,0.00
2012-7-21,94,82,71,74,69,63,90,67,37,29.76,29.67,0,0,0,0.28
2012-7-22,94,84,76,76,70,58,92,68,31,29.82,29.73,0,0,0,0.00
2012-7-23,93,78,0,74,69,0,93,76,37,29.85,29.73,0,0,0,0.00
2012-7-24,90,80,72,75,69,64,94,70,42,29.79,0.00,0,0,0,0.00
2012-7-25,95,84,74,74,68,61,91,64,33,29.67,29.58,0,0,0,0.00
2012-7-26,94,84,76,74,70,63,92,65,38,29.67,29.58,0,0,0,0.00
2012-7-27,96,84,74,74,68,60,89,62,31,29.70,29.61,0,0,0,0.00
2012-7-28,96,84,75,74,68,59,90,63,30,29.73,29.64,0,0,0,0.08
2012-7-29,95,82,75,74,70,59,90,71,32,29.70,29.61,0,0,0,0.12
2012-7-30,91,78,74,75,71,66,92,81,45,29.70,29.61,0,0,0,0.40
2012-7-31,93,80,73,72,69,63,93,72,38,29.67,29.58,0,0,0,0.00
2012-8-1,92,78,73,74,70,60,94,80,40,29.67,29.58,0,0,0,0.24
2012-8-2,92,86,74,77,74,70,91,68,53,30.01,29.87,10,2,12,0.14
2012-8-3,91,83,76,77,74,72,90,77,56,30.04,29.97,10,1,15,0.12
2012-8-4,86,78,71,77,73,69,95,85,66,30.08,30.00,15,3,22,0.14
2012-8-5,86,79,74,78,75,72,94,89,73,30.11,30.00,9,2,14,0.42
2012-8-6,88,78,74,78,75,72,97,90,64,30.11,29.98,8,1,18,0.61
2012-8-7,87,79,74,77,74,72,95,87,67,30.03,29.96,9,2,19,0.24
2012-8-8,91,80,74,78,75,72,95,86,61,30.04,29.97,7,2,12,0.02
2012-8-9,90,80,73,78,75,72,96,84,62,30.02,29.92,5,1,10,0.00
2012-8-10,93,82,74,77,74,70,95,79,52,29.98,29.89,7,2,15,0.38
2012-8-11,91,80,73,78,74,71,95,83,56,29.99,29.89,12,1,17,0.50
2012-8-12,91,80,72,78,74,71,96,83,55,30.02,29.95,9,1,14,0.00
2012-8-13,90,84,78,79,76,72,88,78,58,30.06,29.96,7,2,14,0.00
2012-8-14,89,80,71,77,74,69,96,81,62,30.03,29.92,5,1,8,0.00
2012-8-15,92,82,74,77,74,72,94,79,57,30.03,29.95,9,2,11,0.00
2012-8-16,90,81,74,78,75,71,94,83,63,30.06,29.95,7,1,11,0.06
2012-8-17,88,79,74,79,75,70,95,88,70,30.03,29.91,8,1,14,0.15
2012-8-18,88,81,75,77,75,72,95,83,63,29.95,29.85,7,1,13,0.01
2012-8-19,86,77,74,79,74,73,95,91,75,29.96,29.89,10,2,17,1.97
2012-8-20,86,76,72,79,74,71,96,92,76,30.03,29.87,11,1,22,2.48
2012-8-21,83,74,70,78,72,69,97,94,81,30.07,29.93,12,1,16,1.50
2012-8-22,81,76,69,76,73,68,97,90,80,30.06,30.00,8,1,10,0.01
2012-8-23,82,77,72,75,72,66,96,87,71,30.10,30.01,6,1,7,0.00
2012-8-24,86,76,66,72,69,65,97,80,59,30.09,29.99,8,2,12,0.00
2012-8-25,85,77,68,74,70,67,96,83,63,30.07,29.99,15,4,18,0.00
2012-8-26,85,77,71,76,73,69,96,89,72,30.05,29.94,14,4,24,0.48
2012-8-27,80,78,76,77,75,74,94,92,85,29.94,29.84,16,6,19,0.19
2012-8-28,89,82,78,78,76,76,94,85,68,29.95,29.87,14,4,16,0.00
2012-8-29,88,82,76,78,76,74,94,82,68,30.00,29.92,7,2,12,0.03
2012-8-30,90,79,73,78,75,72,96,87,61,30.12,29.95,9,1,14,0.42
2012-8-31,88,80,73,78,75,72,98,85,65,30.20,30.11,10,1,13,0.01
2012-9-1,90,81,73,77,74,72,98,82,58,30.18,30.05,9,2,11,0.00
2012-9-2,89,81,73,76,74,72,96,81,61,30.09,29.97,6,1,8,0.00
2012-9-3,91,81,73,76,73,70,92,77,51,30.06,29.94,5,1,8,0.00
2012-9-4,91,81,74,76,72,66,92,76,44,30.01,29.91,9,2,14,0.00
2012-9-5,90,80,71,75,71,67,95,76,47,29.97,29.89,8,1,13,0.00
2012-9-6,90,80,73,76,73,71,95,80,57,30.01,29.91,12,1,15,0.00
2012-9-7,90,79,74,77,74,72,95,86,59,29.98,29.89,12,2,16,0.25
2012-9-8,89,81,73,77,74,72,96,82,59,29.93,29.82,12,3,19,0.18
2012-9-9,85,79,76,78,76,74,96,90,77,29.93,29.78,12,2,18,0.26
2012-9-10,85,77,70,75,70,66,96,81,60,30.06,29.91,14,2,17,0.00
2012-9-11,84,76,68,70,66,62,93,74,48,30.16,30.05,14,4,19,0.00
2012-9-12,84,76,68,74,69,66,95,79,60,30.17,30.10,16,4,23,0.00
2012-9-13,84,75,69,74,70,67,96,86,64,30.15,30.06,11,2,24,0.23
2012-9-14,84,77,71,76,72,69,96,85,66,30.11,30.02,14,3,24,0.00
2012-9-15,85,77,70,75,72,68,96,85,64,30.10,30.03,12,2,15,0.00
2012-9-16,87,76,68,76,72,67,97,86,57,30.08,29.98,8,2,21,0.04
2012-9-17,87,78,70,76,73,69,96,84,60,30.04,29.88,15,2,18,0.12
2012-9-18,78,75,73,75,73,71,95,93,87,29.94,29.82,12,3,13,0.66
2012-9-19,86,78,72,75,73,70,96,85,60,30.04,29.88,7,1,11,0.00
2012-9-20,82,76,73,75,73,71,96,89,74,30.04,29.97,10,2,17,0.22
2012-9-21,84,77,71,76,73,70,97,87,65,30.02,29.94,8,2,14,0.00
2012-9-22,87,77,71,75,72,69,97,85,60,30.04,29.96,11,1,14,0.00
2012-9-23,88,76,65,74,68,59,97,77,50,30.09,29.98,8,1,10,0.00
2012-9-24,84,71,56,65,58,53,92,69,37,30.11,30.03,8,1,13,0.00
2012-9-25,82,75,68,72,68,63,91,79,61,30.13,30.04,14,4,20,0.00
2012-9-26,86,76,66,75,70,64,94,82,62,30.13,30.05,8,2,12,0.00
2012-9-27,87,77,69,77,72,68,97,85,61,30.14,30.03,14,2,19,0.10
2012-9-28,85,76,68,76,71,66,96,86,66,30.08,29.96,13,2,15,0.02
2012-9-29,87,77,67,74,70,66,97,81,50,30.01,29.85,7,1,10,0.00
2012-9-30,89,77,71,76,73,70,97,86,58,29.91,29.75,11,1,14,0.36
2012-10-1,86,78,74,78,75,72,96,89,71,29.82,29.70,13,2,18,1.15
2012-10-2,85,79,76,77,75,73,95,88,73,30.01,29.76,12,3,19,0.08
2012-10-3,83,77,74,76,74,73,96,91,78,30.16,30.00,8,1,10,0.02
2012-10-4,89,76,70,77,72,69,97,90,62,30.20,30.09,13,0,18,2.03
2012-10-5,85,76,71,77,73,70,98,92,75,30.15,29.99,13,1,16,0.04
2012-10-6,87,77,71,77,73,70,98,89,68,30.00,29.88,15,2,16,0.01
2012-10-7,87,77,68,75,72,67,97,83,59,30.00,29.91,6,1,10,0.00
2012-10-8,84,76,71,75,73,70,97,89,70,30.03,29.92,6,0,9,0.01
2012-10-9,73,69,64,72,67,63,97,92,86,30.09,29.99,9,2,12,0.00
2012-10-10,79,67,59,68,63,58,98,87,62,30.14,30.04,6,0,11,0.00
2012-10-11,80,68,59,67,62,58,97,82,59,30.20,30.10,10,2,15,0.00
2012-10-12,81,70,59,67,62,58,96,80,56,30.22,30.12,8,2,14,0.00
2012-10-13,82,70,61,70,65,60,96,84,57,30.23,30.14,13,3,22,0.04
2012-10-14,83,74,66,73,69,65,97,86,65,30.16,30.00,10,2,15,0.01
2012-10-15,85,74,65,74,68,64,97,85,60,30.01,29.81,6,0,7,0.00
2012-10-16,80,70,62,67,61,57,95,75,46,29.91,29.81,8,2,14,0.00
2012-10-17,76,67,59,70,64,57,96,89,75,29.92,29.83,6,1,8,0.07
2012-10-18,85,73,65,72,68,64,98,85,58,29.88,29.78,5,1,11,0.00
2012-10-19,81,72,66,71,68,64,96,87,68,29.88,29.78,4,0,8,0.00
2012-10-20,79,66,54,66,53,45,95,68,30,29.97,29.85,6,1,10,0.00
2012-10-21,78,63,48,59,53,46,93,72,40,30.10,29.96,9,2,13,0.00
2012-10-22,78,67,56,67,60,53,95,81,60,30.13,30.05,15,3,18,0.00
2012-10-23,80,69,59,68,63,58,96,82,57,30.11,30.02,12,3,21,0.00
2012-10-24,82,72,63,70,66,62,97,83,59,30.07,29.97,14,3,21,0.00
2012-10-25,82,74,66,72,69,65,96,84,65,29.99,29.87,16,4,22,0.10
2012-10-26,79,74,70,72,68,62,94,83,71,29.87,29.68,17,3,27,0.00
2012-10-27,72,69,66,64,62,61,85,79,72,29.68,29.57,10,3,15,0.00
2012-10-28,73,64,58,61,57,51,92,78,60,29.78,29.65,10,2,15,0.00
2012-10-29,65,56,48,50,42,36,78,62,38,29.84,29.70,11,3,15,0.00
2012-10-30,64,53,42,38,35,29,73,52,29,29.93,29.77,16,3,18,0.00
2012-10-31,70,57,45,51,42,36,82,58,35,30.02,29.89,10,2,16,0.00
2012-11-1,73,59,50,58,52,46,95,79,44,30.01,29.90,9,1,11,0.01
2012-11-2,76,59,43,52,47,42,95,69,35,30.09,29.98,6,0,11,0.00
2012-11-3,82,67,54,65,58,52,97,77,37,30.12,30.02,5,0,9,0.00
2012-11-4,80,66,56,66,60,54,97,83,46,30.10,29.98,7,1,12,0.00
2012-11-5,75,66,51,64,58,47,96,79,39,30.00,29.91,6,1,9,0.00
2012-11-6,73,59,48,61,54,47,95,86,59,29.97,29.80,7,1,12,0.05
2012-11-7,62,54,47,53,47,43,96,80,55,30.00,29.86,11,1,11,0.00
2012-11-8,65,50,39,48,43,37,95,79,45,30.19,30.00,7,1,14,0.00
2012-11-9,70,52,35,49,40,33,94,70,30,30.30,30.18,7,0,10,0.00
2012-11-10,72,55,37,58,48,34,93,78,49,30.35,30.26,7,1,12,0.00
2012-11-11,76,65,53,63,58,52,96,81,54,30.33,30.26,13,2,19,0.02
2012-11-12,78,68,56,68,62,55,96,85,59,30.27,30.17,5,1,10,0.00
2012-11-13,80,68,57,68,63,55,96,86,61,30.20,30.10,3,0,7,0.01
2012-11-14,66,63,59,64,61,58,97,94,90,30.23,30.14,11,3,16,0.01
2012-11-15,60,57,54,59,55,53,97,93,87,30.19,30.11,6,1,10,0.00
2012-11-16,60,55,52,54,52,50,96,91,80,30.22,30.16,8,1,11,0.01
2012-11-17,65,58,53,60,55,51,93,88,83,30.23,30.15,13,3,18,0.00
2012-11-18,70,57,50,58,53,48,95,85,64,30.24,30.15,9,1,16,0.00
2012-11-19,59,57,55,55,53,52,93,88,84,30.19,30.10,9,1,13,0.00
2012-11-20,72,61,53,58,55,51,93,82,61,30.12,30.00,12,1,14,0.00
2012-11-21,72,58,45,55,49,41,94,75,43,30.10,30.02,10,1,14,0.00
2012-11-22,69,52,38,47,40,33,92,70,29,30.19,30.09,10,2,18,0.00
2012-11-23,74,52,33,48,41,31,92,70,34,30.22,30.06,5,1,9,0.00
2012-11-24,70,55,40,52,45,35,95,73,34,30.11,30.00,6,1,10,0.00
2012-11-25,70,47,33,40,32,21,87,62,16,30.20,30.09,5,0,7,0.00
2012-11-26,75,52,32,53,40,29,89,68,29,30.25,30.14,7,0,10,0.00
2012-11-27,79,62,48,64,55,44,94,79,54,30.19,30.07,10,1,16,0.00
2012-11-28,62,56,50,58,53,48,95,91,85,30.32,30.13,8,1,11,0.00
2012-11-29,71,58,47,59,53,46,96,85,63,30.34,30.26,10,2,15,0.00
2012-11-30,73,61,52,60,55,51,96,81,52,30.31,30.20,10,2,16,0.01
2012-12-1,74,61,52,64,58,50,96,90,72,30.29,30.22,11,2,19,0.00
2012-12-2,77,64,53,65,59,52,97,84,57,30.32,30.22,7,1,11,0.01
2012-12-3,71,64,55,65,61,53,96,91,81,30.31,30.22,9,1,12,0.00
2012-12-4,76,62,50,64,55,49,96,78,47,30.32,30.21,10,1,13,0.01
2012-12-5,73,62,50,63,57,48,95,84,68,30.22,30.07,8,1,10,0.00
2012-12-6,74,66,62,65,62,60,95,87,70,30.08,29.98,12,3,17,0.00
2012-12-7,73,64,60,66,62,59,97,92,76,30.04,29.94,6,1,11,0.00
2012-12-8,73,63,59,68,62,58,98,94,84,30.07,29.99,4,1,8,0.00
2012-12-9,79,68,60,70,65,59,98,91,73,30.10,29.99,7,0,7,0.01
2012-12-10,79,67,58,70,65,57,98,92,73,30.01,29.82,9,1,15,2.97
2012-12-11,78,71,67,70,68,66,98,92,73,30.05,29.84,10,1,10,0.01
2012-12-12,68,62,58,66,61,57,98,97,96,30.10,29.99,12,1,13,2.22
2012-12-13,60,54,49,59,53,48,97,95,91,30.26,30.08,7,2,12,0.02
2012-12-14,62,53,48,56,51,47,97,93,81,30.29,30.14,7,1,14,0.00
2012-12-15,74,62,50,66,59,49,97,89,73,30.18,30.07,5,1,9,0.00
2012-12-16,76,64,53,66,60,53,98,89,65,30.08,29.94,6,1,12,0.01
2012-12-17,79,72,63,68,65,62,95,81,60,29.93,29.79,13,3,18,0.00
2012-12-18,73,65,46,68,57,43,95,77,42,30.03,29.84,8,2,17,0.00
2012-12-19,73,54,38,51,44,36,93,73,32,30.14,30.03,7,0,8,0.00
2012-12-20,78,64,46,68,59,45,97,85,62,30.08,29.84,15,4,22,0.47
2012-12-21,65,50,42,55,33,25,76,55,32,30.19,29.90,13,3,18,0.00
2012-12-22,59,44,32,37,28,24,85,57,30,30.29,30.19,7,1,10,0.00
2012-12-23,65,47,31,45,35,28,90,66,25,30.27,30.14,3,0,6,0.00
2012-12-24,68,57,46,57,50,40,92,77,59,30.16,29.97,13,2,17,0.00
2012-12-25,70,62,54,62,58,51,93,85,69,30.02,29.87,7,2,10,0.00
2012-12-26,70,62,44,66,55,36,94,78,58,29.98,29.71,16,5,24,0.45
2012-12-27,59,44,35,44,38,33,92,77,52,30.11,29.98,7,1,12,0.00
2012-12-28,64,50,33,57,44,31,94,81,55,30.13,29.91,8,1,10,0.00
2012-12-29,72,63,44,69,57,36,96,82,57,30.18,29.79,14,4,24,0.88
2012-12-30,52,42,34,38,34,30,90,73,49,30.40,30.17,10,2,15,0.00
2012-12-31,68,53,40,58,47,37,94,83,64,30.41,30.22,5,1,10,0.00
2013-1-1,74,61,47,60,55,46,96,82,60,30.22,30.02,15,2,19,0.00